This is the latest recevied weather packets stored in our database for station/object KF6RAL-6. If no packets are shown the sender has not sent any weather packets the latest 10 day(s).
| Time | Temp. | Humidity | Pressure | Rain* | Wind** | Luminosity | Snow |
|---|---|---|---|---|---|---|---|
| 1777582026 | 13.33° C | 53% | 1016.6 hPa | 0 mm | - | - | - |
| 1777581605 | 13.33° C | 51% | 1016.6 hPa | 0 mm | - | - | - |
| 1777580763 | 13.33° C | 54% | 1016.6 hPa | 0 mm | - | - | - |
| 1777580342 | 13.33° C | 55% | 1016.6 hPa | 0 mm | - | - | - |
| 1777579921 | 13.33° C | 57% | 1016.5 hPa | 0 mm | - | - | - |
| 1777579502 | 12.78° C | 55% | 1016.7 hPa | 0 mm | - | - | - |
| 1777579079 | 12.78° C | 54% | 1016.8 hPa | 0 mm | - | - | - |
| 1777578658 | 12.78° C | 56% | 1016.8 hPa | 0 mm | - | - | - |
| 1777578237 | 12.78° C | 54% | 1017.2 hPa | 0 mm | - | - | - |
| 1777577818 | 12.22° C | 60% | 1017.1 hPa | 0 mm | - | - | - |
| 1777577395 | 12.78° C | 56% | 1017.4 hPa | 0 mm | - | - | - |
| 1777576976 | 12.22° C | 59% | 1017.4 hPa | 0 mm | - | - | - |
| 1777576553 | 12.22° C | 58% | 1017.6 hPa | 0 mm | - | - | - |
| 1777576132 | 12.22° C | 58% | 1017.6 hPa | 0 mm | - | - | - |
| 1777575711 | 12.22° C | 59% | 1017.7 hPa | 0 mm | - | - | - |
| 1777575290 | 12.22° C | 60% | 1017.8 hPa | 0 mm | - | - | - |
| 1777574871 | 11.67° C | 61% | 1017.9 hPa | 0 mm | - | - | - |
| 1777574448 | 11.67° C | 62% | 1018 hPa | 0 mm | - | - | - |
| 1777574027 | 11.67° C | 62% | 1018.1 hPa | 0 mm | - | - | - |
| 1777573606 | 11.67° C | 61% | 1018.1 hPa | 0 mm | - | - | - |
| 1777573185 | 11.67° C | 61% | 1018.1 hPa | 0 mm | - | - | - |
| 1777572764 | 11.67° C | 64% | 1018.1 hPa | 0 mm | - | - | - |
| 1777572343 | 11.67° C | 64% | 1018.1 hPa | 0 mm | - | - | - |
| 1777571983 | 11.67° C | 66% | 1018.2 hPa | 0 mm | - | - | - |
| 1777571922 | 11.67° C | 66% | 1018.2 hPa | 0 mm | - | - | - |
* Rain latest hour (hover to see other rain measurements)
** Current wind speed in m/s (hover to see current wind gust speed)